Terminal Aerodrome Forecast
Issued by NWS Wakefield, VA

Home | Current Version | Previous Version | Text Only | Print | Product List | Glossary On
Versions: 1 2 3 4 5 6 7 8 9 10 11 12 13 14 15 16 17 18 19
360
FTUS41 KAKQ 091408 AAA
TAFSBY
TAF AMD
KSBY 091408Z 0914/1012 05006KT P6SM SCT015 OVC040
      TEMPO 0914/0916 4SM -RA BR BKN015
     FM091600 07008KT P6SM OVC015
     FM092000 25007KT P6SM SCT020 OVC050
     FM100300 28008KT P6SM OVC025=

USA.gov is the U.S. government's official web portal to all federal, state and local government web resources and services.